createdAt,value
2018-03-04T00:00:19.092Z,49.90
2018-03-04T00:00:50.742Z,49.80
2018-03-04T00:01:22.387Z,49.60
2018-03-04T00:01:54.037Z,49.70
2018-03-04T00:02:25.716Z,49.80
2018-03-04T00:02:57.357Z,49.90
2018-03-04T00:03:29.008Z,49.90
2018-03-04T00:04:00.658Z,50.10
2018-03-04T00:04:32.290Z,50.10
2018-03-04T00:05:03.951Z,50.20
2018-03-04T00:05:35.581Z,50.20
2018-03-04T00:06:07.229Z,50.40
2018-03-04T00:06:38.865Z,50.50
2018-03-04T00:07:10.494Z,50.40
2018-03-04T00:07:42.119Z,50.40
2018-03-04T00:08:13.757Z,50.20
2018-03-04T00:08:45.426Z,50.10
2018-03-04T00:09:17.066Z,50.20
2018-03-04T00:09:48.673Z,50.20
2018-03-04T00:10:20.311Z,50.50
2018-03-04T00:10:51.948Z,50.80
2018-03-04T00:11:23.580Z,50.70
2018-03-04T00:11:55.211Z,50.70
2018-03-04T00:12:26.851Z,50.90
2018-03-04T00:12:58.471Z,50.80
2018-03-04T00:13:30.115Z,50.60
2018-03-04T00:14:01.743Z,50.60
2018-03-04T00:14:33.383Z,50.50
2018-03-04T00:15:05.029Z,50.70
2018-03-04T00:15:36.636Z,50.60
2018-03-04T00:16:08.281Z,50.80
2018-03-04T00:16:39.921Z,50.80
2018-03-04T00:17:11.559Z,50.80
2018-03-04T00:17:43.179Z,50.80
2018-03-04T00:18:14.807Z,51.00
2018-03-04T00:18:46.429Z,50.90
2018-03-04T00:19:18.058Z,50.80
2018-03-04T00:19:49.678Z,50.60
2018-03-04T00:20:21.296Z,50.70
2018-03-04T00:20:52.928Z,50.70
2018-03-04T00:21:24.554Z,50.80
2018-03-04T00:21:56.174Z,50.70
2018-03-04T00:22:44.779Z,50.70
2018-03-04T00:23:16.411Z,50.70
2018-03-04T00:23:48.056Z,50.70
2018-03-04T00:24:19.699Z,50.80
2018-03-04T00:24:51.323Z,50.60
2018-03-04T00:25:22.942Z,50.50
2018-03-04T00:25:54.572Z,50.80
2018-03-04T00:26:26.207Z,50.80
2018-03-04T00:26:57.865Z,50.80
2018-03-04T00:27:29.492Z,50.70
2018-03-04T00:28:01.132Z,50.60
2018-03-04T00:28:32.753Z,50.60
2018-03-04T00:29:04.413Z,50.60
2018-03-04T00:29:36.053Z,50.70
2018-03-04T00:30:07.681Z,50.60
2018-03-04T00:30:39.321Z,50.80
2018-03-04T00:31:11.087Z,50.80
2018-03-04T00:31:42.715Z,50.60
2018-03-04T00:32:14.333Z,50.50
2018-03-04T00:32:45.970Z,50.60
2018-03-04T00:33:17.619Z,50.70
2018-03-04T00:33:49.238Z,50.50
2018-03-04T00:34:20.839Z,50.60
2018-03-04T00:34:52.459Z,50.60
2018-03-04T00:35:24.089Z,50.50
2018-03-04T00:35:55.721Z,50.60
2018-03-04T00:36:27.355Z,50.60
2018-03-04T00:36:58.993Z,50.40
2018-03-04T00:37:30.612Z,50.50
2018-03-04T00:38:02.246Z,50.60
2018-03-04T00:38:33.882Z,50.50
2018-03-04T00:39:05.517Z,50.50
2018-03-04T00:39:37.131Z,50.60
2018-03-04T00:40:08.774Z,50.50
2018-03-04T00:40:40.414Z,50.50
2018-03-04T00:41:12.050Z,50.50
2018-03-04T00:41:43.675Z,50.40
2018-03-04T00:42:15.323Z,50.60
2018-03-04T00:42:46.977Z,50.50
2018-03-04T00:43:18.593Z,50.60
2018-03-04T00:43:50.241Z,50.60
2018-03-04T00:44:21.859Z,50.60
2018-03-04T00:44:53.493Z,50.70
2018-03-04T00:45:25.132Z,50.70
2018-03-04T00:45:56.779Z,50.60
2018-03-04T00:46:28.395Z,50.80
2018-03-04T00:47:00.014Z,50.70
2018-03-04T00:47:31.691Z,50.50
2018-03-04T00:48:03.300Z,50.70
2018-03-04T00:48:34.940Z,50.80
2018-03-04T00:49:06.589Z,50.80
2018-03-04T00:49:38.201Z,50.70
2018-03-04T00:50:09.829Z,50.90
2018-03-04T00:50:41.463Z,50.90
2018-03-04T00:51:13.085Z,50.90
2018-03-04T00:51:44.740Z,50.90
2018-03-04T00:52:16.380Z,50.90
2018-03-04T00:52:48.009Z,50.80
2018-03-04T00:53:19.633Z,51.00
2018-03-04T00:53:51.253Z,51.00
2018-03-04T00:54:22.881Z,51.00
2018-03-04T00:54:54.505Z,50.90
2018-03-04T00:55:26.126Z,50.80
2018-03-04T00:55:57.751Z,50.90
2018-03-04T00:56:29.395Z,50.80
2018-03-04T00:57:01.052Z,50.80
2018-03-04T00:57:32.689Z,50.80
2018-03-04T00:58:04.331Z,50.80
2018-03-04T00:58:35.994Z,50.70
2018-03-04T00:59:07.612Z,50.60
2018-03-04T00:59:39.249Z,50.70
2018-03-04T01:00:10.860Z,50.60
2018-03-04T01:00:42.513Z,50.60
2018-03-04T01:01:14.197Z,50.70
2018-03-04T01:01:45.821Z,50.70
2018-03-04T01:02:17.464Z,50.60
2018-03-04T01:02:49.129Z,50.80
2018-03-04T01:03:20.749Z,50.70
2018-03-04T01:03:52.401Z,50.60
2018-03-04T01:04:24.044Z,50.40
2018-03-04T01:04:55.671Z,50.40
2018-03-04T01:05:27.285Z,50.30
2018-03-04T01:05:58.909Z,50.20
2018-03-04T01:06:30.575Z,50.10
2018-03-04T01:07:02.264Z,50.20
2018-03-04T01:07:33.919Z,50.60
2018-03-04T01:08:05.553Z,50.50
2018-03-04T01:08:37.213Z,50.40
2018-03-04T01:09:08.851Z,50.40
2018-03-04T01:09:40.477Z,50.30
2018-03-04T01:10:12.147Z,50.40
2018-03-04T01:10:43.878Z,50.50
2018-03-04T01:11:15.523Z,50.50
2018-03-04T01:11:47.150Z,50.60
2018-03-04T01:12:18.806Z,50.60
2018-03-04T01:12:50.485Z,50.50
2018-03-04T01:13:22.151Z,50.60
2018-03-04T01:13:53.776Z,50.50
2018-03-04T01:14:25.403Z,50.50
2018-03-04T01:14:57.066Z,50.50
2018-03-04T01:15:28.692Z,50.40
2018-03-04T01:16:00.328Z,50.50
2018-03-04T01:16:31.962Z,50.60
2018-03-04T01:17:03.643Z,50.70
2018-03-04T01:17:35.287Z,50.70
2018-03-04T01:18:06.923Z,50.70
2018-03-04T01:18:38.546Z,50.80
2018-03-04T01:19:10.195Z,50.70
2018-03-04T01:19:41.821Z,50.80
2018-03-04T01:20:13.451Z,50.90
2018-03-04T01:20:45.202Z,51.10
2018-03-04T01:21:16.814Z,51.10
2018-03-04T01:21:48.829Z,51.10
2018-03-04T01:22:20.489Z,51.10
2018-03-04T01:22:52.197Z,51.30
2018-03-04T01:23:23.835Z,51.30
2018-03-04T01:23:55.468Z,51.10
2018-03-04T01:24:27.095Z,51.10
2018-03-04T01:24:58.725Z,51.00
2018-03-04T01:25:30.349Z,51.00
2018-03-04T01:26:02.011Z,51.10
2018-03-04T01:26:33.645Z,50.90
2018-03-04T01:27:05.297Z,51.10
2018-03-04T01:27:36.927Z,51.20
2018-03-04T01:28:08.589Z,50.90
2018-03-04T01:28:40.269Z,50.90
2018-03-04T01:29:11.903Z,51.00
2018-03-04T01:29:43.509Z,50.90
2018-03-04T01:30:15.136Z,50.90
2018-03-04T01:30:46.773Z,50.80
2018-03-04T01:31:18.525Z,50.80
2018-03-04T01:31:50.149Z,50.80
2018-03-04T01:32:21.785Z,51.00
2018-03-04T01:32:53.411Z,51.10
2018-03-04T01:33:25.040Z,51.10
2018-03-04T01:33:56.657Z,51.00
2018-03-04T01:34:28.271Z,50.90
2018-03-04T01:34:59.899Z,51.00
2018-03-04T01:35:31.515Z,51.20
2018-03-04T01:36:03.145Z,51.10
2018-03-04T01:36:34.801Z,51.10
2018-03-04T01:37:06.424Z,51.10
2018-03-04T01:37:38.062Z,51.30
2018-03-04T01:38:09.685Z,51.40
2018-03-04T01:38:41.321Z,51.20
2018-03-04T01:39:12.954Z,51.60
2018-03-04T01:39:44.569Z,51.80
2018-03-04T01:40:16.222Z,51.80
2018-03-04T01:40:47.838Z,51.70
2018-03-04T01:41:19.457Z,51.50
2018-03-04T01:41:51.093Z,51.60
2018-03-04T01:42:22.755Z,51.70
2018-03-04T01:42:54.413Z,51.50
2018-03-04T01:43:26.081Z,51.50
2018-03-04T01:43:57.725Z,51.50
2018-03-04T01:44:29.380Z,51.50
2018-03-04T01:45:01.020Z,51.50
2018-03-04T01:45:32.633Z,51.60
2018-03-04T01:46:04.271Z,51.80
2018-03-04T01:46:35.945Z,51.90
2018-03-04T01:47:07.573Z,51.90
2018-03-04T01:47:39.210Z,52.10
2018-03-04T01:48:10.849Z,52.30
2018-03-04T01:48:42.479Z,52.30
2018-03-04T01:49:14.106Z,52.50
2018-03-04T01:49:45.741Z,52.50
2018-03-04T01:50:17.371Z,52.50
2018-03-04T01:50:49.019Z,52.60
2018-03-04T01:51:20.687Z,52.70
2018-03-04T01:51:52.387Z,52.80
2018-03-04T01:52:24.030Z,52.70
2018-03-04T01:52:55.659Z,52.80
2018-03-04T01:53:27.268Z,52.60
2018-03-04T01:53:58.900Z,52.70
2018-03-04T01:54:30.534Z,52.50
2018-03-04T01:55:02.161Z,52.80
2018-03-04T01:55:33.792Z,52.90
2018-03-04T01:56:05.426Z,52.90
2018-03-04T01:56:37.141Z,52.90
2018-03-04T01:57:08.781Z,52.90
2018-03-04T01:57:40.395Z,53.40
2018-03-04T01:58:12.044Z,53.60
2018-03-04T01:58:43.677Z,53.60
2018-03-04T02:01:56.054Z,53.50
2018-03-04T02:02:27.727Z,53.80
2018-03-04T02:02:59.375Z,53.70
2018-03-04T02:03:31.026Z,53.80
2018-03-04T02:04:02.687Z,53.60
2018-03-04T02:04:34.328Z,53.80
2018-03-04T02:05:05.987Z,53.70
2018-03-04T02:05:37.636Z,53.70
2018-03-04T02:06:09.298Z,53.70
2018-03-04T02:06:40.930Z,53.70
2018-03-04T02:07:12.581Z,53.60
2018-03-04T02:07:44.223Z,53.60
2018-03-04T02:08:15.884Z,53.70
2018-03-04T02:08:47.543Z,53.50
2018-03-04T02:09:19.232Z,53.50
2018-03-04T02:09:50.881Z,53.50
2018-03-04T02:10:22.525Z,53.50
2018-03-04T02:10:54.143Z,53.40
2018-03-04T02:11:25.781Z,53.40
2018-03-04T02:11:57.389Z,53.30
2018-03-04T02:12:29.013Z,53.40
2018-03-04T02:13:00.651Z,53.50
2018-03-04T02:13:32.315Z,53.50
2018-03-04T02:14:03.949Z,53.50
2018-03-04T02:14:35.581Z,53.60
2018-03-04T02:15:07.213Z,53.70
2018-03-04T02:15:38.837Z,53.60
2018-03-04T02:16:10.506Z,53.40
2018-03-04T02:16:42.144Z,53.60
2018-03-04T02:17:13.767Z,53.70
2018-03-04T02:17:45.401Z,53.90
2018-03-04T02:18:17.060Z,53.80
2018-03-04T02:18:48.705Z,53.80
2018-03-04T02:19:20.317Z,54.00
2018-03-04T02:19:51.960Z,53.90
2018-03-04T02:20:23.571Z,54.10
2018-03-04T02:20:55.215Z,54.00
2018-03-04T02:21:26.850Z,53.90
2018-03-04T02:21:58.480Z,53.80
2018-03-04T02:22:30.126Z,53.80
2018-03-04T02:23:01.795Z,54.10
2018-03-04T02:23:33.431Z,53.90
2018-03-04T02:24:05.071Z,54.20
2018-03-04T02:24:36.708Z,54.10
2018-03-04T02:25:08.355Z,54.00
2018-03-04T02:25:39.975Z,54.00
2018-03-04T02:26:11.631Z,54.00
2018-03-04T02:26:43.269Z,53.80
2018-03-04T02:27:14.899Z,54.00
2018-03-04T02:27:46.539Z,53.90
2018-03-04T02:28:18.209Z,53.90
2018-03-04T02:28:49.839Z,53.90
2018-03-04T02:29:21.471Z,53.80
2018-03-04T02:29:53.091Z,53.80
2018-03-04T02:30:24.710Z,53.50
2018-03-04T02:30:56.346Z,53.70
2018-03-04T02:31:27.978Z,53.60
2018-03-04T02:31:59.589Z,53.60
2018-03-04T02:32:31.229Z,53.60
2018-03-04T02:33:02.851Z,53.70
2018-03-04T02:33:34.473Z,53.70
2018-03-04T02:34:06.123Z,53.70
2018-03-04T02:34:37.786Z,53.90
2018-03-04T02:35:09.441Z,53.90
2018-03-04T02:35:41.077Z,53.80
2018-03-04T02:36:12.712Z,53.80
2018-03-04T02:36:44.346Z,53.90
2018-03-04T02:37:15.981Z,54.10
2018-03-04T02:37:47.604Z,54.10
2018-03-04T02:38:19.250Z,54.10
2018-03-04T02:38:50.873Z,54.00
2018-03-04T02:39:22.482Z,54.10
2018-03-04T02:39:54.136Z,54.10
2018-03-04T02:40:25.770Z,54.10
2018-03-04T02:40:57.405Z,54.10
2018-03-04T02:41:29.039Z,53.90
2018-03-04T02:42:00.681Z,54.00
2018-03-04T02:42:32.323Z,54.10
2018-03-04T02:43:03.957Z,54.00
2018-03-04T02:43:35.615Z,53.90
2018-03-04T02:44:07.242Z,53.90
2018-03-04T02:44:38.885Z,53.80
2018-03-04T02:45:10.534Z,54.00
2018-03-04T02:45:42.191Z,54.10
2018-03-04T02:46:13.855Z,54.00
2018-03-04T02:46:45.510Z,54.00
2018-03-04T02:47:17.133Z,54.10
2018-03-04T02:47:48.764Z,54.20
2018-03-04T02:48:20.393Z,54.00
2018-03-04T02:48:52.005Z,54.20
2018-03-04T02:49:23.633Z,54.30
2018-03-04T02:49:55.269Z,54.10
2018-03-04T02:50:26.897Z,54.20
2018-03-04T02:50:58.540Z,54.10
2018-03-04T02:51:30.161Z,54.10
2018-03-04T02:52:01.778Z,54.10
2018-03-04T02:52:33.457Z,54.10
2018-03-04T02:53:05.071Z,53.90
2018-03-04T02:53:36.681Z,54.10
2018-03-04T02:54:08.312Z,54.10
2018-03-04T02:54:39.933Z,54.20
2018-03-04T02:55:12.001Z,54.20
2018-03-04T02:55:43.667Z,54.20
2018-03-04T02:56:15.312Z,54.30
2018-03-04T02:56:46.955Z,54.50
2018-03-04T02:57:18.579Z,54.50
2018-03-04T02:57:51.145Z,54.60
2018-03-04T02:58:22.766Z,54.60
2018-03-04T02:58:54.406Z,54.80
2018-03-04T02:59:26.030Z,54.80
2018-03-04T02:59:57.669Z,54.70
2018-03-04T03:00:29.280Z,54.60
2018-03-04T03:01:00.935Z,54.60
2018-03-04T03:01:32.550Z,54.70
2018-03-04T03:02:04.210Z,54.70
2018-03-04T03:02:35.859Z,54.70
2018-03-04T03:03:07.506Z,54.80
2018-03-04T03:03:39.126Z,55.10
2018-03-04T03:04:10.839Z,55.20
2018-03-04T03:04:42.493Z,55.20
2018-03-04T03:05:14.117Z,55.30
2018-03-04T03:05:45.751Z,55.40
2018-03-04T03:06:17.417Z,55.40
2018-03-04T03:06:49.061Z,55.40
2018-03-04T03:07:20.697Z,55.30
2018-03-04T03:07:52.316Z,55.10
2018-03-04T03:08:23.947Z,55.20
2018-03-04T03:08:55.572Z,55.20
2018-03-04T03:09:27.175Z,55.40
2018-03-04T03:09:58.813Z,55.50
2018-03-04T03:10:30.446Z,55.40
2018-03-04T03:11:02.073Z,55.40
2018-03-04T03:11:33.716Z,55.60
2018-03-04T03:12:05.327Z,55.40
2018-03-04T03:12:36.938Z,55.60
2018-03-04T03:13:08.579Z,55.60
2018-03-04T03:13:40.206Z,55.50
2018-03-04T03:14:11.839Z,55.50
2018-03-04T03:14:43.449Z,55.60
2018-03-04T03:15:15.071Z,55.50
2018-03-04T03:15:46.698Z,55.70
2018-03-04T03:16:18.342Z,55.80
2018-03-04T03:16:49.989Z,55.80
2018-03-04T03:17:21.609Z,55.90
2018-03-04T03:17:53.237Z,56.20
2018-03-04T03:18:24.843Z,56.30
2018-03-04T03:18:56.495Z,56.30
2018-03-04T03:19:28.118Z,56.40
2018-03-04T03:19:59.737Z,56.40
2018-03-04T03:20:31.361Z,56.30
2018-03-04T03:21:02.990Z,56.30
2018-03-04T03:21:34.629Z,56.40
2018-03-04T03:22:06.263Z,56.70
2018-03-04T03:22:37.907Z,56.90
2018-03-04T03:23:09.559Z,56.90
2018-03-04T03:23:41.209Z,56.90
2018-03-04T03:24:12.833Z,56.80
2018-03-04T03:24:44.449Z,56.80
2018-03-04T03:25:16.081Z,57.30
2018-03-04T03:25:47.719Z,57.50
2018-03-04T03:26:19.363Z,57.50
2018-03-04T03:26:50.983Z,57.80
2018-03-04T03:27:22.629Z,58.00
2018-03-04T03:27:54.267Z,58.10
2018-03-04T03:28:25.903Z,58.30
2018-03-04T03:28:57.521Z,58.30
2018-03-04T03:29:29.138Z,58.30
2018-03-04T03:30:00.811Z,58.30
2018-03-04T03:30:32.425Z,58.30
2018-03-04T03:31:07.563Z,58.40
2018-03-04T03:31:39.220Z,58.60
2018-03-04T03:32:10.891Z,59.00
2018-03-04T03:32:42.519Z,59.00
2018-03-04T03:33:14.127Z,59.10
2018-03-04T03:33:45.749Z,59.20
2018-03-04T03:34:17.383Z,59.30
2018-03-04T03:34:49.020Z,59.60
2018-03-04T03:35:20.659Z,59.80
2018-03-04T03:35:52.292Z,59.80
2018-03-04T03:36:23.898Z,59.80
2018-03-04T03:36:55.516Z,59.90
2018-03-04T03:37:27.114Z,60.00
2018-03-04T03:37:58.749Z,60.10
2018-03-04T03:38:30.432Z,60.10
2018-03-04T03:39:02.082Z,60.00
2018-03-04T03:39:33.737Z,60.00
2018-03-04T03:40:05.368Z,60.10
2018-03-04T03:40:37.006Z,60.20
2018-03-04T03:41:08.640Z,60.20
2018-03-04T03:41:40.281Z,60.00
2018-03-04T03:42:11.912Z,60.30
2018-03-04T03:42:43.527Z,60.40
2018-03-04T03:43:15.145Z,60.40
2018-03-04T03:43:46.773Z,60.40
2018-03-04T03:44:18.403Z,60.60
2018-03-04T03:44:50.034Z,60.40
2018-03-04T03:45:21.659Z,60.50
2018-03-04T03:45:53.295Z,60.80
2018-03-04T03:46:24.925Z,60.90
2018-03-04T03:46:56.557Z,60.80
2018-03-04T03:47:28.183Z,60.80
2018-03-04T03:47:59.806Z,60.80
2018-03-04T03:48:31.427Z,60.80
2018-03-04T03:49:03.049Z,60.70
2018-03-04T03:49:34.743Z,60.80
2018-03-04T03:50:06.367Z,60.80
2018-03-04T03:50:38.031Z,60.70
2018-03-04T03:51:09.667Z,60.80
2018-03-04T03:51:41.301Z,60.80
2018-03-04T03:52:12.913Z,60.90
2018-03-04T03:52:44.535Z,60.70
2018-03-04T03:53:16.199Z,61.00
2018-03-04T03:53:47.836Z,61.30
2018-03-04T03:54:19.503Z,61.30
2018-03-04T03:54:51.117Z,61.20
2018-03-04T03:55:22.745Z,61.30
2018-03-04T03:55:54.377Z,61.40
2018-03-04T03:56:26.017Z,61.60
2018-03-04T03:56:57.626Z,61.30
2018-03-04T03:57:29.249Z,61.30
2018-03-04T03:58:00.885Z,61.40
2018-03-04T03:58:32.506Z,61.80
2018-03-04T03:59:04.173Z,61.70
2018-03-04T03:59:35.815Z,61.60
2018-03-04T04:00:07.420Z,61.60
2018-03-04T04:00:39.934Z,61.50
2018-03-04T04:01:11.556Z,61.40
2018-03-04T04:01:43.175Z,61.40
2018-03-04T04:02:14.786Z,61.50
2018-03-04T04:02:46.405Z,61.40
2018-03-04T04:03:18.017Z,61.30
2018-03-04T04:03:49.673Z,61.60
2018-03-04T04:04:21.304Z,61.90
2018-03-04T04:04:52.923Z,62.00
2018-03-04T04:05:24.546Z,61.80
2018-03-04T04:05:56.203Z,61.70
2018-03-04T04:06:27.834Z,61.80
2018-03-04T04:06:59.465Z,61.80
2018-03-04T04:07:31.073Z,61.90
2018-03-04T04:08:02.741Z,61.80
2018-03-04T04:08:34.392Z,61.90
2018-03-04T04:09:06.158Z,61.90
2018-03-04T04:09:37.824Z,62.00
2018-03-04T04:10:09.509Z,62.20
2018-03-04T04:10:41.144Z,62.30
2018-03-04T04:11:12.767Z,62.10
2018-03-04T04:11:44.410Z,62.00
2018-03-04T04:12:16.055Z,62.30
2018-03-04T04:12:47.694Z,62.60
2018-03-04T04:13:19.334Z,62.80
2018-03-04T04:13:50.965Z,62.80
2018-03-04T04:14:22.576Z,62.80
2018-03-04T04:14:54.245Z,62.80
2018-03-04T04:15:25.849Z,62.80
2018-03-04T04:15:57.484Z,63.00
2018-03-04T04:16:29.117Z,63.10
2018-03-04T04:17:00.746Z,63.00
2018-03-04T04:17:32.381Z,63.10
2018-03-04T04:18:04.018Z,63.20
2018-03-04T04:18:35.627Z,63.40
2018-03-04T04:19:07.281Z,63.20
2018-03-04T04:19:38.904Z,63.20
2018-03-04T04:20:10.551Z,63.20
2018-03-04T04:20:42.187Z,63.20
2018-03-04T04:21:13.827Z,63.30
2018-03-04T04:21:45.447Z,63.60
2018-03-04T04:22:17.071Z,63.60
2018-03-04T04:22:48.685Z,63.60
2018-03-04T04:23:20.354Z,63.90
2018-03-04T04:23:52.001Z,63.90
2018-03-04T04:24:23.611Z,64.00
2018-03-04T04:24:55.230Z,63.90
2018-03-04T04:25:26.853Z,64.10
2018-03-04T04:25:58.525Z,63.90
2018-03-04T04:26:30.177Z,63.70
2018-03-04T04:27:01.838Z,63.60
2018-03-04T04:27:33.461Z,63.60
2018-03-04T04:28:05.081Z,63.60
2018-03-04T04:28:36.719Z,63.60
2018-03-04T04:29:08.364Z,63.70
2018-03-04T04:29:39.989Z,63.70
2018-03-04T04:30:11.633Z,63.90
2018-03-04T04:30:43.264Z,63.90
2018-03-04T04:31:14.895Z,63.80
2018-03-04T04:31:46.555Z,63.90
2018-03-04T04:32:18.152Z,63.80
2018-03-04T04:32:49.787Z,63.90
2018-03-04T04:33:21.407Z,63.80
2018-03-04T04:33:53.013Z,64.00
2018-03-04T04:34:24.636Z,63.90
2018-03-04T04:34:56.261Z,64.00
2018-03-04T04:35:27.929Z,64.20
2018-03-04T04:35:59.556Z,64.20
2018-03-04T04:36:31.173Z,64.10
2018-03-04T04:37:02.805Z,64.20
2018-03-04T04:37:34.420Z,64.30
2018-03-04T04:38:06.053Z,64.30
2018-03-04T04:38:37.702Z,64.20
2018-03-04T04:39:09.320Z,64.20
2018-03-04T04:39:41.015Z,64.20
2018-03-04T04:40:12.611Z,64.20
2018-03-04T04:40:44.219Z,64.20
2018-03-04T04:41:15.881Z,64.40
2018-03-04T04:41:47.519Z,64.50
2018-03-04T04:42:19.145Z,64.60
2018-03-04T04:42:50.775Z,64.60
2018-03-04T04:43:22.412Z,64.70
2018-03-04T04:43:54.049Z,64.60
2018-03-04T04:44:25.702Z,64.50
2018-03-04T04:44:57.325Z,64.50
2018-03-04T04:45:28.942Z,64.30
2018-03-04T04:46:00.581Z,64.20
2018-03-04T04:46:32.223Z,64.20
2018-03-04T04:47:03.866Z,64.20
2018-03-04T04:47:35.480Z,64.00
2018-03-04T04:48:07.119Z,64.20
2018-03-04T04:48:38.725Z,64.00
2018-03-04T04:49:10.357Z,63.90
2018-03-04T04:49:41.986Z,63.80
2018-03-04T04:50:13.644Z,63.80
2018-03-04T04:50:45.252Z,63.50
2018-03-04T04:51:16.882Z,63.40
2018-03-04T04:51:48.525Z,63.20
2018-03-04T04:52:20.132Z,63.20
2018-03-04T04:52:51.740Z,63.10
2018-03-04T04:53:23.363Z,63.00
2018-03-04T04:53:55.026Z,63.00
2018-03-04T04:54:26.644Z,62.80
2018-03-04T04:54:58.281Z,63.00
2018-03-04T04:55:29.896Z,62.90
2018-03-04T04:56:01.510Z,63.00
2018-03-04T04:56:33.141Z,62.90
2018-03-04T04:57:04.775Z,62.80
2018-03-04T04:57:36.435Z,62.70
2018-03-04T04:58:08.049Z,62.60
2018-03-04T04:58:39.667Z,62.60
2018-03-04T04:59:11.320Z,62.50
2018-03-04T04:59:42.953Z,62.50
2018-03-04T05:00:14.561Z,62.20
2018-03-04T05:00:46.196Z,62.30
2018-03-04T05:01:17.815Z,62.30
2018-03-04T05:01:49.493Z,62.20
2018-03-04T05:02:21.144Z,62.10
2018-03-04T05:02:52.752Z,62.30
2018-03-04T05:03:24.415Z,62.20
2018-03-04T05:03:56.055Z,62.20
2018-03-04T05:04:27.700Z,62.20
2018-03-04T05:05:00.182Z,62.20
2018-03-04T05:05:31.792Z,62.20
2018-03-04T05:06:03.441Z,62.20
2018-03-04T05:06:35.075Z,62.00
2018-03-04T05:07:06.740Z,62.10
2018-03-04T05:07:38.386Z,62.20
2018-03-04T05:08:10.012Z,62.10
2018-03-04T05:08:41.629Z,62.10
2018-03-04T05:09:13.275Z,62.10
2018-03-04T05:09:44.901Z,62.10
2018-03-04T05:10:16.523Z,62.00
2018-03-04T05:10:48.152Z,61.90
2018-03-04T05:11:19.802Z,62.00
2018-03-04T05:11:51.441Z,62.00
2018-03-04T05:12:23.068Z,61.90
2018-03-04T05:12:54.721Z,61.90
2018-03-04T05:13:26.350Z,62.00
2018-03-04T05:13:57.986Z,62.00
2018-03-04T05:14:29.612Z,62.00
2018-03-04T05:15:01.261Z,62.00
2018-03-04T05:15:32.880Z,62.00
2018-03-04T05:16:04.508Z,62.10
2018-03-04T05:16:36.128Z,62.20
2018-03-04T05:17:07.772Z,62.10
2018-03-04T05:17:39.422Z,62.10
2018-03-04T05:18:11.045Z,62.20
2018-03-04T05:18:42.692Z,62.50
2018-03-04T05:19:14.397Z,62.40
2018-03-04T05:19:46.017Z,62.80
2018-03-04T05:20:17.651Z,62.90
2018-03-04T05:20:49.292Z,62.70
2018-03-04T05:21:20.926Z,62.70
2018-03-04T05:21:52.555Z,62.70
2018-03-04T05:22:24.164Z,63.00
2018-03-04T05:22:55.797Z,63.10
2018-03-04T05:23:27.414Z,63.00
2018-03-04T05:23:59.042Z,63.10
2018-03-04T05:24:30.721Z,63.40
2018-03-04T05:25:02.353Z,63.50
2018-03-04T05:25:33.979Z,63.30
2018-03-04T05:26:05.576Z,63.50
2018-03-04T05:26:37.234Z,63.50
2018-03-04T05:27:08.881Z,63.60
2018-03-04T05:27:40.500Z,63.60
2018-03-04T05:28:12.124Z,63.80
2018-03-04T05:28:43.741Z,63.80
2018-03-04T05:29:15.377Z,63.80
2018-03-04T05:29:47.002Z,63.60
2018-03-04T05:30:18.651Z,63.60
2018-03-04T05:30:50.256Z,63.70
2018-03-04T05:31:21.876Z,63.90
2018-03-04T05:31:53.522Z,64.00
2018-03-04T05:32:25.142Z,64.10
2018-03-04T05:32:56.758Z,64.00
2018-03-04T05:33:28.402Z,64.20
2018-03-04T05:34:00.053Z,64.50
2018-03-04T05:34:31.697Z,64.80
2018-03-04T05:35:03.349Z,64.60
2018-03-04T05:35:34.973Z,64.70
2018-03-04T05:36:06.585Z,64.70
2018-03-04T05:36:38.219Z,64.50
2018-03-04T05:37:09.838Z,64.60
2018-03-04T05:37:41.452Z,64.70
2018-03-04T05:38:13.065Z,64.70
2018-03-04T05:38:44.673Z,64.70
2018-03-04T05:39:16.315Z,64.70
2018-03-04T05:39:47.936Z,64.70
2018-03-04T05:40:19.590Z,65.00
2018-03-04T05:40:51.192Z,65.10
2018-03-04T05:41:22.806Z,65.00
2018-03-04T05:41:54.429Z,65.30
2018-03-04T05:42:26.045Z,65.30
2018-03-04T05:42:57.671Z,65.40
2018-03-04T05:43:29.288Z,65.40
2018-03-04T05:44:00.905Z,65.40
2018-03-04T05:44:32.527Z,65.40
2018-03-04T05:45:04.147Z,65.50
2018-03-04T05:45:35.757Z,65.70
2018-03-04T05:46:07.425Z,65.70
2018-03-04T05:46:39.041Z,65.80
2018-03-04T05:47:10.705Z,65.80
2018-03-04T05:47:42.329Z,65.70
2018-03-04T05:48:13.967Z,65.70
2018-03-04T05:48:45.625Z,65.70
2018-03-04T05:49:17.341Z,65.60
2018-03-04T05:49:48.969Z,65.80
2018-03-04T05:50:20.595Z,65.90
2018-03-04T05:50:52.202Z,65.90
2018-03-04T05:51:23.827Z,66.10
2018-03-04T05:51:55.470Z,66.40
2018-03-04T05:52:27.131Z,66.50
2018-03-04T05:52:58.769Z,66.50
2018-03-04T05:53:30.407Z,66.50
2018-03-04T05:54:02.029Z,66.40
2018-03-04T05:54:33.663Z,66.40
2018-03-04T05:55:05.287Z,66.60
2018-03-04T05:55:36.915Z,66.70
2018-03-04T05:56:08.552Z,66.70
2018-03-04T05:56:40.161Z,66.50
2018-03-04T05:57:11.780Z,66.50
2018-03-04T05:57:43.443Z,66.50
2018-03-04T05:58:15.063Z,66.50
2018-03-04T05:58:46.690Z,66.40
2018-03-04T05:59:18.317Z,66.50
2018-03-04T05:59:49.943Z,66.50
2018-03-04T06:00:21.606Z,66.70
2018-03-04T06:00:53.235Z,66.70
2018-03-04T06:01:24.871Z,66.80
2018-03-04T06:01:56.509Z,66.90
2018-03-04T06:02:28.157Z,67.00
2018-03-04T06:02:59.781Z,66.90
2018-03-04T06:03:31.402Z,66.90
2018-03-04T06:04:03.004Z,66.80
2018-03-04T06:04:34.663Z,67.20
2018-03-04T06:05:06.276Z,67.30
2018-03-04T06:05:37.926Z,67.10
2018-03-04T06:06:10.401Z,67.10
2018-03-04T06:06:42.042Z,67.30
2018-03-04T06:07:13.653Z,67.20
2018-03-04T06:07:45.292Z,67.40
2018-03-04T06:08:16.930Z,67.40
2018-03-04T06:08:48.581Z,67.40
2018-03-04T06:09:20.217Z,67.60
2018-03-04T06:09:51.875Z,67.70
2018-03-04T06:10:23.515Z,67.50
2018-03-04T06:10:55.161Z,67.50
2018-03-04T06:11:26.787Z,67.70
2018-03-04T06:11:58.414Z,67.80
2018-03-04T06:12:30.037Z,67.70
2018-03-04T06:13:01.652Z,67.70
2018-03-04T06:13:33.283Z,67.50
2018-03-04T06:14:04.920Z,67.60
2018-03-04T06:14:36.581Z,67.70
2018-03-04T06:15:08.209Z,67.80
2018-03-04T06:15:39.848Z,67.80
2018-03-04T06:16:11.476Z,67.70
2018-03-04T06:16:43.074Z,67.80
2018-03-04T06:17:14.703Z,67.80
2018-03-04T06:17:46.319Z,67.80
2018-03-04T06:18:17.973Z,67.80
2018-03-04T06:18:49.588Z,67.70
2018-03-04T06:19:21.213Z,67.80
2018-03-04T06:19:52.832Z,67.70
2018-03-04T06:20:24.454Z,67.60
2018-03-04T06:20:56.088Z,67.50
2018-03-04T06:21:27.740Z,67.60
2018-03-04T06:21:59.373Z,67.60
2018-03-04T06:22:31.001Z,67.40
2018-03-04T06:23:02.614Z,67.40
2018-03-04T06:23:34.250Z,67.50
2018-03-04T06:24:05.885Z,67.50
2018-03-04T06:24:37.539Z,67.40
2018-03-04T06:25:09.177Z,67.20
2018-03-04T06:25:40.796Z,67.10
2018-03-04T06:26:12.444Z,67.10
2018-03-04T06:26:44.103Z,67.10
2018-03-04T06:27:15.719Z,67.00
2018-03-04T06:27:47.363Z,66.80
2018-03-04T06:28:19.003Z,67.00
2018-03-04T06:28:50.640Z,66.80
2018-03-04T06:29:22.270Z,67.00
2018-03-04T06:29:53.910Z,67.00
2018-03-04T06:30:25.544Z,66.90
2018-03-04T06:30:57.174Z,66.80
2018-03-04T06:31:28.808Z,66.70
2018-03-04T06:32:00.453Z,66.60
2018-03-04T06:32:32.099Z,66.70
2018-03-04T06:33:03.726Z,66.80
2018-03-04T06:35:10.666Z,66.70
2018-03-04T06:35:42.304Z,66.80
2018-03-04T06:36:13.945Z,66.80
2018-03-04T06:36:45.595Z,66.90
2018-03-04T06:37:17.224Z,67.00
2018-03-04T06:37:48.853Z,67.00
2018-03-04T06:38:20.486Z,67.00
2018-03-04T06:38:52.146Z,67.10
2018-03-04T06:39:23.766Z,67.50
2018-03-04T06:39:55.392Z,67.50
2018-03-04T06:40:26.991Z,67.40
2018-03-04T06:40:58.626Z,67.50
2018-03-04T06:41:30.237Z,67.50
2018-03-04T06:42:01.869Z,67.60
2018-03-04T06:42:33.540Z,67.60
2018-03-04T06:43:05.176Z,67.60
2018-03-04T06:43:36.788Z,67.80
2018-03-04T06:44:08.433Z,67.80
2018-03-04T06:44:40.095Z,67.80
2018-03-04T06:45:11.726Z,67.90
2018-03-04T06:45:43.338Z,67.80
2018-03-04T06:46:14.976Z,67.90
2018-03-04T06:46:46.634Z,67.70
2018-03-04T06:47:18.271Z,67.50
2018-03-04T06:47:49.924Z,67.50
2018-03-04T06:48:21.556Z,67.50
2018-03-04T06:48:53.184Z,67.50
2018-03-04T06:49:24.800Z,67.40
2018-03-04T06:49:56.411Z,67.10
2018-03-04T06:50:28.033Z,66.90
2018-03-04T06:50:59.660Z,66.80
2018-03-04T06:51:31.263Z,66.70
2018-03-04T06:52:02.886Z,66.30